sensor_id;sensor_type;location;lat;lon;timestamp;temperature;humidity
27258;DHT22;62045;49.986;8.672;2022-08-19T00:04:35;27.30;44.80
27258;DHT22;62045;49.986;8.672;2022-08-19T00:09:37;27.30;44.80
27258;DHT22;62045;49.986;8.672;2022-08-19T00:14:39;27.30;44.80
27258;DHT22;62045;49.986;8.672;2022-08-19T00:19:40;27.30;44.80
27258;DHT22;62045;49.986;8.672;2022-08-19T00:24:42;27.30;44.80
27258;DHT22;62045;49.986;8.672;2022-08-19T00:29:43;27.20;44.70
27258;DHT22;62045;49.986;8.672;2022-08-19T00:34:44;27.20;44.80
27258;DHT22;62045;49.986;8.672;2022-08-19T00:39:46;27.20;44.70
27258;DHT22;62045;49.986;8.672;2022-08-19T00:44:47;27.20;44.80
27258;DHT22;62045;49.986;8.672;2022-08-19T00:49:50;27.20;44.80
27258;DHT22;62045;49.986;8.672;2022-08-19T00:54:53;27.10;44.70
27258;DHT22;62045;49.986;8.672;2022-08-19T00:59:55;27.10;44.70
27258;DHT22;62045;49.986;8.672;2022-08-19T01:04:56;27.10;44.80
27258;DHT22;62045;49.986;8.672;2022-08-19T01:09:59;27.10;44.80
27258;DHT22;62045;49.986;8.672;2022-08-19T01:15:00;27.10;45.40
27258;DHT22;62045;49.986;8.672;2022-08-19T01:20:02;27.10;44.90
27258;DHT22;62045;49.986;8.672;2022-08-19T01:25:06;27.10;44.80
27258;DHT22;62045;49.986;8.672;2022-08-19T01:30:08;27.10;44.80
27258;DHT22;62045;49.986;8.672;2022-08-19T01:35:12;27.20;44.90
27258;DHT22;62045;49.986;8.672;2022-08-19T01:40:15;27.20;44.90
27258;DHT22;62045;49.986;8.672;2022-08-19T01:45:18;27.20;44.90
27258;DHT22;62045;49.986;8.672;2022-08-19T01:50:19;27.20;44.80
27258;DHT22;62045;49.986;8.672;2022-08-19T01:55:21;27.20;44.80
27258;DHT22;62045;49.986;8.672;2022-08-19T02:00:25;27.20;44.80
27258;DHT22;62045;49.986;8.672;2022-08-19T02:05:26;27.20;44.80
27258;DHT22;62045;49.986;8.672;2022-08-19T02:10:28;27.20;44.80
27258;DHT22;62045;49.986;8.672;2022-08-19T02:15:29;27.20;44.80
27258;DHT22;62045;49.986;8.672;2022-08-19T02:20:30;27.20;44.70
27258;DHT22;62045;49.986;8.672;2022-08-19T02:25:33;27.10;44.60
27258;DHT22;62045;49.986;8.672;2022-08-19T02:30:34;27.10;44.60
27258;DHT22;62045;49.986;8.672;2022-08-19T02:35:35;27.10;44.70
27258;DHT22;62045;49.986;8.672;2022-08-19T02:40:37;27.10;44.60
27258;DHT22;62045;49.986;8.672;2022-08-19T02:45:39;27.00;45.30
27258;DHT22;62045;49.986;8.672;2022-08-19T02:50:40;27.00;44.60
27258;DHT22;62045;49.986;8.672;2022-08-19T02:55:46;27.00;44.60
27258;DHT22;62045;49.986;8.672;2022-08-19T03:00:48;27.00;44.70
27258;DHT22;62045;49.986;8.672;2022-08-19T03:05:49;27.00;44.60
27258;DHT22;62045;49.986;8.672;2022-08-19T03:10:51;27.00;44.70
27258;DHT22;62045;49.986;8.672;2022-08-19T03:15:52;26.90;44.60
27258;DHT22;62045;49.986;8.672;2022-08-19T03:20:53;26.90;44.70
27258;DHT22;62045;49.986;8.672;2022-08-19T03:25:55;27.00;44.80
27258;DHT22;62045;49.986;8.672;2022-08-19T03:30:58;27.00;44.80
27258;DHT22;62045;49.986;8.672;2022-08-19T03:36:07;27.00;44.80
27258;DHT22;62045;49.986;8.672;2022-08-19T03:41:12;27.00;44.70
27258;DHT22;62045;49.986;8.672;2022-08-19T03:46:15;27.00;44.70
27258;DHT22;62045;49.986;8.672;2022-08-19T03:51:17;27.00;44.70
27258;DHT22;62045;49.986;8.672;2022-08-19T03:56:19;27.00;44.70
27258;DHT22;62045;49.986;8.672;2022-08-19T04:01:22;27.00;44.70
27258;DHT22;62045;49.986;8.672;2022-08-19T04:06:26;27.00;44.70
27258;DHT22;62045;49.986;8.672;2022-08-19T04:11:33;27.10;44.80
27258;DHT22;62045;49.986;8.672;2022-08-19T04:16:34;27.00;44.70
27258;DHT22;62045;49.986;8.672;2022-08-19T04:21:35;27.00;44.60
27258;DHT22;62045;49.986;8.672;2022-08-19T04:26:37;27.00;44.60
27258;DHT22;62045;49.986;8.672;2022-08-19T04:31:39;27.00;44.60
27258;DHT22;62045;49.986;8.672;2022-08-19T04:36:41;27.00;44.60
27258;DHT22;62045;49.986;8.672;2022-08-19T04:41:45;26.90;44.60
27258;DHT22;62045;49.986;8.672;2022-08-19T04:46:46;26.90;44.60
27258;DHT22;62045;49.986;8.672;2022-08-19T04:51:47;26.90;44.60
27258;DHT22;62045;49.986;8.672;2022-08-19T04:56:49;26.90;44.60
27258;DHT22;62045;49.986;8.672;2022-08-19T05:01:50;26.90;44.60
27258;DHT22;62045;49.986;8.672;2022-08-19T05:06:51;26.80;44.60
27258;DHT22;62045;49.986;8.672;2022-08-19T05:11:53;26.80;44.60
27258;DHT22;62045;49.986;8.672;2022-08-19T05:16:54;26.80;44.60
27258;DHT22;62045;49.986;8.672;2022-08-19T05:21:55;26.80;44.60
27258;DHT22;62045;49.986;8.672;2022-08-19T05:26:57;26.80;44.70
27258;DHT22;62045;49.986;8.672;2022-08-19T05:31:58;26.80;44.70
27258;DHT22;62045;49.986;8.672;2022-08-19T05:37:00;26.80;44.70
27258;DHT22;62045;49.986;8.672;2022-08-19T05:42:05;26.80;44.70
27258;DHT22;62045;49.986;8.672;2022-08-19T05:47:07;26.90;44.70
27258;DHT22;62045;49.986;8.672;2022-08-19T05:52:09;26.90;44.70
27258;DHT22;62045;49.986;8.672;2022-08-19T05:57:13;26.90;44.70
27258;DHT22;62045;49.986;8.672;2022-08-19T06:02:14;26.90;44.70
27258;DHT22;62045;49.986;8.672;2022-08-19T06:07:15;26.90;44.60
27258;DHT22;62045;49.986;8.672;2022-08-19T06:12:17;26.90;44.60
27258;DHT22;62045;49.986;8.672;2022-08-19T06:17:18;26.90;44.60
27258;DHT22;62045;49.986;8.672;2022-08-19T06:22:19;26.90;44.50
27258;DHT22;62045;49.986;8.672;2022-08-19T06:27:21;26.90;44.50
27258;DHT22;62045;49.986;8.672;2022-08-19T06:32:22;26.90;44.50
27258;DHT22;62045;49.986;8.672;2022-08-19T06:37:24;26.80;44.50
27258;DHT22;62045;49.986;8.672;2022-08-19T06:42:26;26.80;44.50
27258;DHT22;62045;49.986;8.672;2022-08-19T06:47:27;26.80;44.50
27258;DHT22;62045;49.986;8.672;2022-08-19T06:52:28;26.80;44.50
27258;DHT22;62045;49.986;8.672;2022-08-19T06:57:30;26.80;44.60
27258;DHT22;62045;49.986;8.672;2022-08-19T07:02:31;26.80;44.50
27258;DHT22;62045;49.986;8.672;2022-08-19T07:07:32;26.80;44.50
27258;DHT22;62045;49.986;8.672;2022-08-19T07:12:34;26.80;44.60
27258;DHT22;62045;49.986;8.672;2022-08-19T07:17:35;26.70;44.60
27258;DHT22;62045;49.986;8.672;2022-08-19T07:22:37;26.70;44.80
27258;DHT22;62045;49.986;8.672;2022-08-19T07:27:39;26.80;45.40
27258;DHT22;62045;49.986;8.672;2022-08-19T07:32:40;26.80;46.20
27258;DHT22;62045;49.986;8.672;2022-08-19T07:37:41;26.80;46.10
27258;DHT22;62045;49.986;8.672;2022-08-19T07:42:44;26.90;46.10
27258;DHT22;62045;49.986;8.672;2022-08-19T07:47:44;26.90;46.00
27258;DHT22;62045;49.986;8.672;2022-08-19T07:52:45;26.90;45.90
27258;DHT22;62045;49.986;8.672;2022-08-19T07:57:48;26.90;45.80
27258;DHT22;62045;49.986;8.672;2022-08-19T08:02:49;26.90;45.80
27258;DHT22;62045;49.986;8.672;2022-08-19T08:07:50;27.00;45.70
27258;DHT22;62045;49.986;8.672;2022-08-19T08:12:52;27.00;45.70
27258;DHT22;62045;49.986;8.672;2022-08-19T08:17:53;27.00;45.60
27258;DHT22;62045;49.986;8.672;2022-08-19T08:22:54;27.00;45.60
27258;DHT22;62045;49.986;8.672;2022-08-19T08:27:56;27.00;45.50
27258;DHT22;62045;49.986;8.672;2022-08-19T08:32:57;27.00;45.50
27258;DHT22;62045;49.986;8.672;2022-08-19T08:37:58;27.00;45.50
27258;DHT22;62045;49.986;8.672;2022-08-19T08:43:06;27.00;45.50
27258;DHT22;62045;49.986;8.672;2022-08-19T08:48:13;26.90;45.30
27258;DHT22;62045;49.986;8.672;2022-08-19T08:53:18;26.90;45.30
27258;DHT22;62045;49.986;8.672;2022-08-19T08:58:27;26.90;45.30
27258;DHT22;62045;49.986;8.672;2022-08-19T09:03:29;26.90;45.30
27258;DHT22;62045;49.986;8.672;2022-08-19T09:08:40;26.90;45.30
27258;DHT22;62045;49.986;8.672;2022-08-19T09:13:55;26.90;45.30
27258;DHT22;62045;49.986;8.672;2022-08-19T09:19:04;26.90;45.30
27258;DHT22;62045;49.986;8.672;2022-08-19T09:24:05;26.80;45.30
27258;DHT22;62045;49.986;8.672;2022-08-19T09:29:08;26.90;45.30
27258;DHT22;62045;49.986;8.672;2022-08-19T09:34:09;26.90;45.30
27258;DHT22;62045;49.986;8.672;2022-08-19T09:39:09;26.90;45.20
27258;DHT22;62045;49.986;8.672;2022-08-19T09:44:12;26.90;45.20
27258;DHT22;62045;49.986;8.672;2022-08-19T09:49:14;26.90;45.30
27258;DHT22;62045;49.986;8.672;2022-08-19T09:54:15;27.00;45.30
27258;DHT22;62045;49.986;8.672;2022-08-19T09:59:17;27.00;45.30
27258;DHT22;62045;49.986;8.672;2022-08-19T10:04:18;27.00;45.40
27258;DHT22;62045;49.986;8.672;2022-08-19T10:09:20;27.00;45.30
27258;DHT22;62045;49.986;8.672;2022-08-19T10:14:22;27.00;45.30
27258;DHT22;62045;49.986;8.672;2022-08-19T10:19:23;27.10;45.40
27258;DHT22;62045;49.986;8.672;2022-08-19T10:24:24;27.00;45.30
27258;DHT22;62045;49.986;8.672;2022-08-19T10:29:26;27.00;45.30
27258;DHT22;62045;49.986;8.672;2022-08-19T10:34:28;27.00;46.10
27258;DHT22;62045;49.986;8.672;2022-08-19T10:39:31;27.00;45.70
27258;DHT22;62045;49.986;8.672;2022-08-19T10:44:34;27.00;45.70
27258;DHT22;62045;49.986;8.672;2022-08-19T10:49:34;26.90;45.60
27258;DHT22;62045;49.986;8.672;2022-08-19T10:54:35;26.90;45.60
27258;DHT22;62045;49.986;8.672;2022-08-19T10:59:38;26.90;45.60
27258;DHT22;62045;49.986;8.672;2022-08-19T11:04:39;26.90;45.60
27258;DHT22;62045;49.986;8.672;2022-08-19T11:09:41;26.90;45.60
27258;DHT22;62045;49.986;8.672;2022-08-19T11:14:43;26.90;45.70
27258;DHT22;62045;49.986;8.672;2022-08-19T11:19:44;26.90;45.70
27258;DHT22;62045;49.986;8.672;2022-08-19T11:24:45;26.90;45.70
27258;DHT22;62045;49.986;8.672;2022-08-19T11:29:47;26.90;45.70
27258;DHT22;62045;49.986;8.672;2022-08-19T11:34:48;27.00;46.30
27258;DHT22;62045;49.986;8.672;2022-08-19T11:39:49;27.00;45.60
27258;DHT22;62045;49.986;8.672;2022-08-19T11:44:51;27.00;45.50
27258;DHT22;62045;49.986;8.672;2022-08-19T11:49:52;27.10;45.40
27258;DHT22;62045;49.986;8.672;2022-08-19T11:54:53;27.10;45.40
27258;DHT22;62045;49.986;8.672;2022-08-19T11:59:55;27.10;45.40
27258;DHT22;62045;49.986;8.672;2022-08-19T12:04:56;27.10;45.30
27258;DHT22;62045;49.986;8.672;2022-08-19T12:09:57;27.10;45.30
27258;DHT22;62045;49.986;8.672;2022-08-19T12:15:00;27.00;45.30
27258;DHT22;62045;49.986;8.672;2022-08-19T12:20:00;27.00;45.30
27258;DHT22;62045;49.986;8.672;2022-08-19T12:25:02;27.00;45.30
27258;DHT22;62045;49.986;8.672;2022-08-19T12:30:07;27.00;45.30
27258;DHT22;62045;49.986;8.672;2022-08-19T12:35:08;27.00;45.40
27258;DHT22;62045;49.986;8.672;2022-08-19T12:40:10;27.00;45.40
27258;DHT22;62045;49.986;8.672;2022-08-19T12:45:13;27.00;45.40
27258;DHT22;62045;49.986;8.672;2022-08-19T12:50:14;27.00;45.40
27258;DHT22;62045;49.986;8.672;2022-08-19T12:55:15;27.00;45.40
27258;DHT22;62045;49.986;8.672;2022-08-19T13:00:19;27.00;45.40
27258;DHT22;62045;49.986;8.672;2022-08-19T13:05:23;27.00;45.40
27258;DHT22;62045;49.986;8.672;2022-08-19T13:10:28;27.00;45.30
27258;DHT22;62045;49.986;8.672;2022-08-19T13:15:33;27.10;45.30
27258;DHT22;62045;49.986;8.672;2022-08-19T13:20:35;27.10;45.20
27258;DHT22;62045;49.986;8.672;2022-08-19T13:25:36;27.10;45.10
27258;DHT22;62045;49.986;8.672;2022-08-19T13:30:39;27.10;45.00
27258;DHT22;62045;49.986;8.672;2022-08-19T13:35:42;27.20;45.10
27258;DHT22;62045;49.986;8.672;2022-08-19T13:40:44;27.20;45.00
27258;DHT22;62045;49.986;8.672;2022-08-19T13:45:47;27.20;45.30
27258;DHT22;62045;49.986;8.672;2022-08-19T13:50:48;27.20;45.90
27258;DHT22;62045;49.986;8.672;2022-08-19T13:55:49;27.20;45.80
27258;DHT22;62045;49.986;8.672;2022-08-19T14:00:51;27.10;45.60
27258;DHT22;62045;49.986;8.672;2022-08-19T14:05:52;27.20;45.60
27258;DHT22;62045;49.986;8.672;2022-08-19T14:10:54;27.10;45.50
27258;DHT22;62045;49.986;8.672;2022-08-19T14:15:56;27.10;45.50
27258;DHT22;62045;49.986;8.672;2022-08-19T14:20:57;27.10;45.70
27258;DHT22;62045;49.986;8.672;2022-08-19T14:26:06;27.10;45.50
27258;DHT22;62045;49.986;8.672;2022-08-19T14:31:09;27.10;45.40
27258;DHT22;62045;49.986;8.672;2022-08-19T14:36:10;27.20;45.40
27258;DHT22;62045;49.986;8.672;2022-08-19T14:41:14;27.20;45.30
27258;DHT22;62045;49.986;8.672;2022-08-19T14:46:17;27.20;45.20
27258;DHT22;62045;49.986;8.672;2022-08-19T14:51:20;27.20;45.10
27258;DHT22;62045;49.986;8.672;2022-08-19T14:56:24;27.30;45.10
27258;DHT22;62045;49.986;8.672;2022-08-19T15:01:27;27.30;45.00
27258;DHT22;62045;49.986;8.672;2022-08-19T15:06:28;27.30;44.80
27258;DHT22;62045;49.986;8.672;2022-08-19T15:11:29;27.40;44.70
27258;DHT22;62045;49.986;8.672;2022-08-19T15:16:32;27.40;44.70
27258;DHT22;62045;49.986;8.672;2022-08-19T15:21:33;27.50;46.20
27258;DHT22;62045;49.986;8.672;2022-08-19T15:26:34;28.10;48.20
27258;DHT22;62045;49.986;8.672;2022-08-19T15:31:36;29.10;43.70
27258;DHT22;62045;49.986;8.672;2022-08-19T15:36:37;29.70;41.20
27258;DHT22;62045;49.986;8.672;2022-08-19T15:41:38;30.00;40.00
27258;DHT22;62045;49.986;8.672;2022-08-19T15:46:43;30.00;39.60
27258;DHT22;62045;49.986;8.672;2022-08-19T15:51:46;29.90;39.30
27258;DHT22;62045;49.986;8.672;2022-08-19T15:56:47;29.70;39.10
27258;DHT22;62045;49.986;8.672;2022-08-19T16:01:49;29.60;39.40
27258;DHT22;62045;49.986;8.672;2022-08-19T16:06:52;29.40;39.30
27258;DHT22;62045;49.986;8.672;2022-08-19T16:11:54;29.30;39.60
27258;DHT22;62045;49.986;8.672;2022-08-19T16:16:57;29.20;39.70
27258;DHT22;62045;49.986;8.672;2022-08-19T16:21:58;29.00;39.80
27258;DHT22;62045;49.986;8.672;2022-08-19T16:26:58;28.90;40.00
27258;DHT22;62045;49.986;8.672;2022-08-19T16:32:01;28.80;40.00
27258;DHT22;62045;49.986;8.672;2022-08-19T16:37:02;28.80;40.30
27258;DHT22;62045;49.986;8.672;2022-08-19T16:42:04;28.70;40.40
27258;DHT22;62045;49.986;8.672;2022-08-19T16:47:07;28.70;40.50
27258;DHT22;62045;49.986;8.672;2022-08-19T16:52:08;28.60;40.50
27258;DHT22;62045;49.986;8.672;2022-08-19T16:57:09;28.60;40.50
27258;DHT22;62045;49.986;8.672;2022-08-19T17:02:12;28.60;40.60
27258;DHT22;62045;49.986;8.672;2022-08-19T17:07:13;28.60;40.60
27258;DHT22;62045;49.986;8.672;2022-08-19T17:12:13;28.60;40.60
27258;DHT22;62045;49.986;8.672;2022-08-19T17:17:16;28.50;40.60
27258;DHT22;62045;49.986;8.672;2022-08-19T17:22:17;28.50;40.60
27258;DHT22;62045;49.986;8.672;2022-08-19T17:27:18;28.50;40.60
27258;DHT22;62045;49.986;8.672;2022-08-19T17:32:20;28.50;40.60
27258;DHT22;62045;49.986;8.672;2022-08-19T17:37:21;28.50;40.60
27258;DHT22;62045;49.986;8.672;2022-08-19T17:42:22;28.40;40.60
27258;DHT22;62045;49.986;8.672;2022-08-19T17:47:25;28.40;40.70
27258;DHT22;62045;49.986;8.672;2022-08-19T17:52:26;28.40;40.70
27258;DHT22;62045;49.986;8.672;2022-08-19T17:57:27;28.40;40.70
27258;DHT22;62045;49.986;8.672;2022-08-19T18:02:29;28.30;40.50
27258;DHT22;62045;49.986;8.672;2022-08-19T18:07:30;28.30;40.70
27258;DHT22;62045;49.986;8.672;2022-08-19T18:12:31;28.30;40.80
27258;DHT22;62045;49.986;8.672;2022-08-19T18:17:33;28.20;40.80
27258;DHT22;62045;49.986;8.672;2022-08-19T18:22:35;28.20;40.80
27258;DHT22;62045;49.986;8.672;2022-08-19T18:27:37;28.20;40.80
27258;DHT22;62045;49.986;8.672;2022-08-19T18:32:40;28.20;40.90
27258;DHT22;62045;49.986;8.672;2022-08-19T18:37:42;28.20;40.90
27258;DHT22;62045;49.986;8.672;2022-08-19T18:42:44;28.20;40.90
27258;DHT22;62045;49.986;8.672;2022-08-19T18:47:47;28.20;40.90
27258;DHT22;62045;49.986;8.672;2022-08-19T18:52:48;28.20;40.90
27258;DHT22;62045;49.986;8.672;2022-08-19T18:57:48;28.30;41.00
27258;DHT22;62045;49.986;8.672;2022-08-19T19:02:51;28.30;41.00
27258;DHT22;62045;49.986;8.672;2022-08-19T19:07:52;28.30;41.10
27258;DHT22;62045;49.986;8.672;2022-08-19T19:12:53;28.30;41.00
27258;DHT22;62045;49.986;8.672;2022-08-19T19:17:55;28.30;41.00
27258;DHT22;62045;49.986;8.672;2022-08-19T19:22:56;28.30;41.10
27258;DHT22;62045;49.986;8.672;2022-08-19T19:27:57;28.30;41.10
27258;DHT22;62045;49.986;8.672;2022-08-19T19:32:59;28.30;41.10
27258;DHT22;62045;49.986;8.672;2022-08-19T19:38:00;28.30;41.20
27258;DHT22;62045;49.986;8.672;2022-08-19T19:43:01;28.20;41.10
27258;DHT22;62045;49.986;8.672;2022-08-19T19:48:04;28.20;41.20
27258;DHT22;62045;49.986;8.672;2022-08-19T19:53:05;28.10;41.20
27258;DHT22;62045;49.986;8.672;2022-08-19T19:58:06;28.10;41.20
27258;DHT22;62045;49.986;8.672;2022-08-19T20:03:08;28.10;41.30
27258;DHT22;62045;49.986;8.672;2022-08-19T20:08:09;28.10;41.40
27258;DHT22;62045;49.986;8.672;2022-08-19T20:13:11;28.10;41.50
27258;DHT22;62045;49.986;8.672;2022-08-19T20:18:13;28.10;41.40
27258;DHT22;62045;49.986;8.672;2022-08-19T20:23:14;28.00;41.50
27258;DHT22;62045;49.986;8.672;2022-08-19T20:28:16;28.10;41.50
27258;DHT22;62045;49.986;8.672;2022-08-19T20:33:18;28.00;41.60
27258;DHT22;62045;49.986;8.672;2022-08-19T20:38:19;28.00;41.60
27258;DHT22;62045;49.986;8.672;2022-08-19T20:43:20;28.00;41.70
27258;DHT22;62045;49.986;8.672;2022-08-19T20:48:22;28.00;41.70
27258;DHT22;62045;49.986;8.672;2022-08-19T20:53:24;28.00;41.70
27258;DHT22;62045;49.986;8.672;2022-08-19T20:58:26;28.00;41.70
27258;DHT22;62045;49.986;8.672;2022-08-19T21:03:30;28.10;41.80
27258;DHT22;62045;49.986;8.672;2022-08-19T21:08:31;28.10;42.40
27258;DHT22;62045;49.986;8.672;2022-08-19T21:13:33;28.10;41.80
27258;DHT22;62045;49.986;8.672;2022-08-19T21:18:35;28.10;41.80
27258;DHT22;62045;49.986;8.672;2022-08-19T21:23:36;28.10;41.80
27258;DHT22;62045;49.986;8.672;2022-08-19T21:28:37;28.10;41.80
27258;DHT22;62045;49.986;8.672;2022-08-19T21:33:39;28.10;41.80
27258;DHT22;62045;49.986;8.672;2022-08-19T21:38:40;28.10;41.90
27258;DHT22;62045;49.986;8.672;2022-08-19T21:43:41;28.10;41.90
27258;DHT22;62045;49.986;8.672;2022-08-19T21:48:43;28.10;42.50
27258;DHT22;62045;49.986;8.672;2022-08-19T21:53:44;28.00;41.80
27258;DHT22;62045;49.986;8.672;2022-08-19T21:58:45;28.00;41.90
27258;DHT22;62045;49.986;8.672;2022-08-19T22:03:47;28.00;41.90
27258;DHT22;62045;49.986;8.672;2022-08-19T22:08:48;28.00;42.00
27258;DHT22;62045;49.986;8.672;2022-08-19T22:13:49;28.00;42.00
27258;DHT22;62045;49.986;8.672;2022-08-19T22:18:52;27.90;42.00
27258;DHT22;62045;49.986;8.672;2022-08-19T22:23:53;27.90;42.00
27258;DHT22;62045;49.986;8.672;2022-08-19T22:28:53;27.90;42.00
27258;DHT22;62045;49.986;8.672;2022-08-19T22:33:56;27.90;42.00
27258;DHT22;62045;49.986;8.672;2022-08-19T22:38:57;27.90;42.00
27258;DHT22;62045;49.986;8.672;2022-08-19T22:43:58;27.90;42.10
27258;DHT22;62045;49.986;8.672;2022-08-19T22:49:00;27.90;42.10
27258;DHT22;62045;49.986;8.672;2022-08-19T22:54:01;27.90;42.10
27258;DHT22;62045;49.986;8.672;2022-08-19T22:59:03;27.90;42.20
27258;DHT22;62045;49.986;8.672;2022-08-19T23:04:05;28.00;42.20
27258;DHT22;62045;49.986;8.672;2022-08-19T23:09:07;28.00;42.20
27258;DHT22;62045;49.986;8.672;2022-08-19T23:14:09;28.00;42.20
27258;DHT22;62045;49.986;8.672;2022-08-19T23:19:11;27.90;42.80
27258;DHT22;62045;49.986;8.672;2022-08-19T23:24:12;28.00;42.20
27258;DHT22;62045;49.986;8.672;2022-08-19T23:29:13;27.90;42.10
27258;DHT22;62045;49.986;8.672;2022-08-19T23:34:15;28.00;42.20
27258;DHT22;62045;49.986;8.672;2022-08-19T23:39:16;27.90;42.10
27258;DHT22;62045;49.986;8.672;2022-08-19T23:44:17;27.90;42.10
27258;DHT22;62045;49.986;8.672;2022-08-19T23:49:20;27.90;42.10
27258;DHT22;62045;49.986;8.672;2022-08-19T23:54:21;27.90;42.10
27258;DHT22;62045;49.986;8.672;2022-08-19T23:59:21;27.80;42.10
